sensor_id;sensor_type;location;lat;lon;timestamp;P1;durP1;ratioP1;P2;durP2;ratioP2
17570;SDS011;8903;52.220;20.978;2023-07-28T00:01:02;5.87;;;5.27;;
17570;SDS011;8903;52.220;20.978;2023-07-28T00:03:29;10.87;;;4.87;;
17570;SDS011;8903;52.220;20.978;2023-07-28T00:05:57;5.67;;;5.17;;
17570;SDS011;8903;52.220;20.978;2023-07-28T00:08:24;5.30;;;4.60;;
17570;SDS011;8903;52.220;20.978;2023-07-28T00:10:51;4.73;;;4.30;;
17570;SDS011;8903;52.220;20.978;2023-07-28T00:13:20;4.80;;;4.13;;
17570;SDS011;8903;52.220;20.978;2023-07-28T00:15:47;6.33;;;4.73;;
17570;SDS011;8903;52.220;20.978;2023-07-28T00:18:16;6.77;;;5.50;;
17570;SDS011;8903;52.220;20.978;2023-07-28T00:20:46;11.77;;;10.03;;
17570;SDS011;8903;52.220;20.978;2023-07-28T00:23:13;4.63;;;4.23;;
17570;SDS011;8903;52.220;20.978;2023-07-28T00:25:40;5.57;;;5.07;;
17570;SDS011;8903;52.220;20.978;2023-07-28T00:28:07;6.80;;;4.07;;
17570;SDS011;8903;52.220;20.978;2023-07-28T00:30:34;4.77;;;4.37;;
17570;SDS011;8903;52.220;20.978;2023-07-28T00:33:01;6.17;;;4.33;;
17570;SDS011;8903;52.220;20.978;2023-07-28T00:35:31;4.70;;;4.20;;
17570;SDS011;8903;52.220;20.978;2023-07-28T00:37:58;6.87;;;4.40;;
17570;SDS011;8903;52.220;20.978;2023-07-28T00:40:26;4.90;;;4.50;;
17570;SDS011;8903;52.220;20.978;2023-07-28T00:42:55;4.53;;;4.13;;
17570;SDS011;8903;52.220;20.978;2023-07-28T00:45:22;8.00;;;4.23;;
17570;SDS011;8903;52.220;20.978;2023-07-28T00:47:50;5.37;;;4.80;;
17570;SDS011;8903;52.220;20.978;2023-07-28T00:50:17;5.30;;;4.80;;
17570;SDS011;8903;52.220;20.978;2023-07-28T00:52:46;5.70;;;4.60;;
17570;SDS011;8903;52.220;20.978;2023-07-28T00:55:14;5.47;;;4.50;;
17570;SDS011;8903;52.220;20.978;2023-07-28T00:57:41;5.67;;;4.57;;
17570;SDS011;8903;52.220;20.978;2023-07-28T01:00:09;4.73;;;4.33;;
17570;SDS011;8903;52.220;20.978;2023-07-28T01:02:37;4.73;;;4.30;;
17570;SDS011;8903;52.220;20.978;2023-07-28T01:05:05;8.23;;;6.80;;
17570;SDS011;8903;52.220;20.978;2023-07-28T01:07:35;10.30;;;6.67;;
17570;SDS011;8903;52.220;20.978;2023-07-28T01:10:13;7.70;;;4.13;;
17570;SDS011;8903;52.220;20.978;2023-07-28T01:12:44;4.50;;;4.07;;
17570;SDS011;8903;52.220;20.978;2023-07-28T01:15:11;4.90;;;4.50;;
17570;SDS011;8903;52.220;20.978;2023-07-28T01:17:40;5.00;;;4.50;;
17570;SDS011;8903;52.220;20.978;2023-07-28T01:20:07;4.87;;;4.47;;
17570;SDS011;8903;52.220;20.978;2023-07-28T01:22:46;4.80;;;4.40;;
17570;SDS011;8903;52.220;20.978;2023-07-28T01:25:21;4.60;;;4.20;;
17570;SDS011;8903;52.220;20.978;2023-07-28T01:27:57;4.53;;;4.13;;
17570;SDS011;8903;52.220;20.978;2023-07-28T01:30:26;10.37;;;5.10;;
17570;SDS011;8903;52.220;20.978;2023-07-28T01:32:55;6.63;;;3.97;;
17570;SDS011;8903;52.220;20.978;2023-07-28T01:35:23;7.77;;;6.97;;
17570;SDS011;8903;52.220;20.978;2023-07-28T01:37:52;5.73;;;4.83;;
17570;SDS011;8903;52.220;20.978;2023-07-28T01:40:19;6.77;;;5.90;;
17570;SDS011;8903;52.220;20.978;2023-07-28T01:42:46;5.97;;;5.47;;
17570;SDS011;8903;52.220;20.978;2023-07-28T01:45:15;6.80;;;4.80;;
17570;SDS011;8903;52.220;20.978;2023-07-28T01:47:42;4.40;;;4.00;;
17570;SDS011;8903;52.220;20.978;2023-07-28T01:50:09;6.00;;;5.00;;
17570;SDS011;8903;52.220;20.978;2023-07-28T01:52:36;5.93;;;5.00;;
17570;SDS011;8903;52.220;20.978;2023-07-28T01:55:03;5.00;;;4.60;;
17570;SDS011;8903;52.220;20.978;2023-07-28T01:57:32;5.23;;;4.80;;
17570;SDS011;8903;52.220;20.978;2023-07-28T02:00:00;5.47;;;5.00;;
17570;SDS011;8903;52.220;20.978;2023-07-28T02:02:40;5.30;;;4.70;;
17570;SDS011;8903;52.220;20.978;2023-07-28T02:05:07;4.60;;;4.20;;
17570;SDS011;8903;52.220;20.978;2023-07-28T02:07:34;4.60;;;4.20;;
17570;SDS011;8903;52.220;20.978;2023-07-28T02:10:01;5.10;;;4.50;;
17570;SDS011;8903;52.220;20.978;2023-07-28T02:12:29;4.93;;;4.53;;
17570;SDS011;8903;52.220;20.978;2023-07-28T02:14:56;4.97;;;4.53;;
17570;SDS011;8903;52.220;20.978;2023-07-28T02:17:23;5.57;;;4.60;;
17570;SDS011;8903;52.220;20.978;2023-07-28T02:19:52;5.87;;;4.97;;
17570;SDS011;8903;52.220;20.978;2023-07-28T02:22:19;5.50;;;4.47;;
17570;SDS011;8903;52.220;20.978;2023-07-28T02:24:46;4.80;;;4.40;;
17570;SDS011;8903;52.220;20.978;2023-07-28T02:27:14;5.07;;;4.63;;
17570;SDS011;8903;52.220;20.978;2023-07-28T02:29:42;7.07;;;4.67;;
17570;SDS011;8903;52.220;20.978;2023-07-28T02:32:11;5.53;;;4.63;;
17570;SDS011;8903;52.220;20.978;2023-07-28T02:34:38;4.80;;;4.50;;
17570;SDS011;8903;52.220;20.978;2023-07-28T02:37:07;4.83;;;4.43;;
17570;SDS011;8903;52.220;20.978;2023-07-28T02:39:34;5.70;;;4.77;;
17570;SDS011;8903;52.220;20.978;2023-07-28T02:42:01;6.30;;;5.40;;
17570;SDS011;8903;52.220;20.978;2023-07-28T02:44:28;5.27;;;4.80;;
17570;SDS011;8903;52.220;20.978;2023-07-28T02:46:55;8.63;;;4.90;;
17570;SDS011;8903;52.220;20.978;2023-07-28T02:49:22;7.10;;;5.23;;
17570;SDS011;8903;52.220;20.978;2023-07-28T02:51:49;4.73;;;4.33;;
17570;SDS011;8903;52.220;20.978;2023-07-28T02:54:18;6.83;;;5.80;;
17570;SDS011;8903;52.220;20.978;2023-07-28T02:56:47;8.03;;;6.50;;
17570;SDS011;8903;52.220;20.978;2023-07-28T02:59:14;5.23;;;4.83;;
17570;SDS011;8903;52.220;20.978;2023-07-28T03:01:42;8.50;;;5.93;;
17570;SDS011;8903;52.220;20.978;2023-07-28T03:04:10;7.33;;;4.97;;
17570;SDS011;8903;52.220;20.978;2023-07-28T03:06:55;7.47;;;4.77;;
17570;SDS011;8903;52.220;20.978;2023-07-28T03:09:24;5.63;;;5.10;;
17570;SDS011;8903;52.220;20.978;2023-07-28T03:11:59;6.63;;;5.93;;
17570;SDS011;8903;52.220;20.978;2023-07-28T03:14:28;6.07;;;5.57;;
17570;SDS011;8903;52.220;20.978;2023-07-28T03:16:55;5.70;;;4.70;;
17570;SDS011;8903;52.220;20.978;2023-07-28T03:19:23;6.73;;;5.93;;
17570;SDS011;8903;52.220;20.978;2023-07-28T03:21:50;5.80;;;5.30;;
17570;SDS011;8903;52.220;20.978;2023-07-28T03:24:18;6.70;;;5.13;;
17570;SDS011;8903;52.220;20.978;2023-07-28T03:26:47;6.20;;;5.60;;
17570;SDS011;8903;52.220;20.978;2023-07-28T03:29:15;6.17;;;5.40;;
17570;SDS011;8903;52.220;20.978;2023-07-28T03:31:43;6.57;;;5.87;;
17570;SDS011;8903;52.220;20.978;2023-07-28T03:34:10;6.23;;;5.73;;
17570;SDS011;8903;52.220;20.978;2023-07-28T03:36:38;5.40;;;4.90;;
17570;SDS011;8903;52.220;20.978;2023-07-28T03:39:05;6.60;;;5.13;;
17570;SDS011;8903;52.220;20.978;2023-07-28T03:41:32;10.60;;;5.63;;
17570;SDS011;8903;52.220;20.978;2023-07-28T03:44:01;8.40;;;5.00;;
17570;SDS011;8903;52.220;20.978;2023-07-28T03:46:29;5.47;;;4.97;;
17570;SDS011;8903;52.220;20.978;2023-07-28T03:48:56;7.50;;;5.80;;
17570;SDS011;8903;52.220;20.978;2023-07-28T03:51:26;5.70;;;5.20;;
17570;SDS011;8903;52.220;20.978;2023-07-28T03:53:52;6.00;;;5.37;;
17570;SDS011;8903;52.220;20.978;2023-07-28T03:56:20;7.00;;;6.30;;
17570;SDS011;8903;52.220;20.978;2023-07-28T03:58:47;6.03;;;5.40;;
17570;SDS011;8903;52.220;20.978;2023-07-28T04:01:15;5.83;;;5.33;;
17570;SDS011;8903;52.220;20.978;2023-07-28T04:03:43;5.23;;;4.70;;
17570;SDS011;8903;52.220;20.978;2023-07-28T04:06:10;5.60;;;5.10;;
17570;SDS011;8903;52.220;20.978;2023-07-28T04:08:38;5.90;;;5.30;;
17570;SDS011;8903;52.220;20.978;2023-07-28T04:11:05;5.63;;;4.90;;
17570;SDS011;8903;52.220;20.978;2023-07-28T04:13:33;6.77;;;5.97;;
17570;SDS011;8903;52.220;20.978;2023-07-28T04:16:00;5.60;;;5.10;;
17570;SDS011;8903;52.220;20.978;2023-07-28T04:18:29;6.23;;;5.57;;
17570;SDS011;8903;52.220;20.978;2023-07-28T04:20:57;9.17;;;5.87;;
17570;SDS011;8903;52.220;20.978;2023-07-28T04:23:26;7.70;;;5.77;;
17570;SDS011;8903;52.220;20.978;2023-07-28T04:25:54;6.33;;;5.07;;
17570;SDS011;8903;52.220;20.978;2023-07-28T04:28:23;7.17;;;5.60;;
17570;SDS011;8903;52.220;20.978;2023-07-28T04:30:52;8.30;;;6.60;;
17570;SDS011;8903;52.220;20.978;2023-07-28T04:33:45;7.70;;;6.40;;
17570;SDS011;8903;52.220;20.978;2023-07-28T04:36:12;5.77;;;5.13;;
17570;SDS011;8903;52.220;20.978;2023-07-28T04:38:40;5.87;;;5.37;;
17570;SDS011;8903;52.220;20.978;2023-07-28T04:41:07;5.97;;;4.67;;
17570;SDS011;8903;52.220;20.978;2023-07-28T04:43:47;5.00;;;4.60;;
17570;SDS011;8903;52.220;20.978;2023-07-28T04:46:17;7.63;;;5.73;;
17570;SDS011;8903;52.220;20.978;2023-07-28T04:48:50;7.50;;;5.10;;
17570;SDS011;8903;52.220;20.978;2023-07-28T04:51:36;6.20;;;5.60;;
17570;SDS011;8903;52.220;20.978;2023-07-28T04:54:22;9.20;;;5.40;;
17570;SDS011;8903;52.220;20.978;2023-07-28T04:56:50;5.90;;;4.80;;
17570;SDS011;8903;52.220;20.978;2023-07-28T04:59:19;5.60;;;5.10;;
17570;SDS011;8903;52.220;20.978;2023-07-28T05:01:47;5.73;;;5.20;;
17570;SDS011;8903;52.220;20.978;2023-07-28T05:04:15;6.00;;;5.47;;
17570;SDS011;8903;52.220;20.978;2023-07-28T05:06:42;6.23;;;5.13;;
17570;SDS011;8903;52.220;20.978;2023-07-28T05:09:09;8.00;;;6.60;;
17570;SDS011;8903;52.220;20.978;2023-07-28T05:11:36;6.07;;;5.47;;
17570;SDS011;8903;52.220;20.978;2023-07-28T05:14:03;7.43;;;6.57;;
17570;SDS011;8903;52.220;20.978;2023-07-28T05:16:31;5.57;;;5.07;;
17570;SDS011;8903;52.220;20.978;2023-07-28T05:19:11;6.33;;;5.83;;
17570;SDS011;8903;52.220;20.978;2023-07-28T05:21:58;6.27;;;5.67;;
17570;SDS011;8903;52.220;20.978;2023-07-28T05:24:42;5.97;;;5.40;;
17570;SDS011;8903;52.220;20.978;2023-07-28T05:27:11;6.40;;;5.10;;
17570;SDS011;8903;52.220;20.978;2023-07-28T05:29:41;8.83;;;6.07;;
17570;SDS011;8903;52.220;20.978;2023-07-28T05:32:08;5.53;;;5.07;;
17570;SDS011;8903;52.220;20.978;2023-07-28T05:34:53;7.53;;;5.00;;
17570;SDS011;8903;52.220;20.978;2023-07-28T05:37:21;9.70;;;5.20;;
17570;SDS011;8903;52.220;20.978;2023-07-28T05:39:50;5.27;;;4.87;;
17570;SDS011;8903;52.220;20.978;2023-07-28T05:42:19;7.93;;;5.27;;
17570;SDS011;8903;52.220;20.978;2023-07-28T05:44:47;5.80;;;5.30;;
17570;SDS011;8903;52.220;20.978;2023-07-28T05:47:15;5.33;;;4.83;;
17570;SDS011;8903;52.220;20.978;2023-07-28T05:49:42;5.43;;;4.83;;
17570;SDS011;8903;52.220;20.978;2023-07-28T05:52:09;5.23;;;4.73;;
17570;SDS011;8903;52.220;20.978;2023-07-28T05:54:37;5.50;;;4.90;;
17570;SDS011;8903;52.220;20.978;2023-07-28T05:57:05;5.93;;;4.80;;
17570;SDS011;8903;52.220;20.978;2023-07-28T05:59:32;5.83;;;5.07;;
17570;SDS011;8903;52.220;20.978;2023-07-28T06:01:59;6.00;;;4.63;;
17570;SDS011;8903;52.220;20.978;2023-07-28T06:04:35;5.17;;;4.57;;
17570;SDS011;8903;52.220;20.978;2023-07-28T06:07:04;5.13;;;4.57;;
17570;SDS011;8903;52.220;20.978;2023-07-28T06:09:32;4.77;;;4.10;;
17570;SDS011;8903;52.220;20.978;2023-07-28T06:12:01;7.43;;;4.43;;
17570;SDS011;8903;52.220;20.978;2023-07-28T06:14:31;5.77;;;4.63;;
17570;SDS011;8903;52.220;20.978;2023-07-28T06:16:59;5.30;;;4.90;;
17570;SDS011;8903;52.220;20.978;2023-07-28T06:19:29;7.20;;;4.87;;
17570;SDS011;8903;52.220;20.978;2023-07-28T06:21:56;5.83;;;5.20;;
17570;SDS011;8903;52.220;20.978;2023-07-28T06:24:23;6.30;;;5.70;;
17570;SDS011;8903;52.220;20.978;2023-07-28T06:26:51;9.93;;;6.23;;
17570;SDS011;8903;52.220;20.978;2023-07-28T06:29:20;5.67;;;4.43;;
17570;SDS011;8903;52.220;20.978;2023-07-28T06:31:48;9.73;;;6.80;;
17570;SDS011;8903;52.220;20.978;2023-07-28T06:34:16;5.57;;;4.67;;
17570;SDS011;8903;52.220;20.978;2023-07-28T06:36:43;6.97;;;6.00;;
17570;SDS011;8903;52.220;20.978;2023-07-28T06:39:11;6.67;;;6.00;;
17570;SDS011;8903;52.220;20.978;2023-07-28T06:41:38;6.10;;;4.50;;
17570;SDS011;8903;52.220;20.978;2023-07-28T06:44:07;7.10;;;4.73;;
17570;SDS011;8903;52.220;20.978;2023-07-28T06:46:35;5.13;;;4.70;;
17570;SDS011;8903;52.220;20.978;2023-07-28T06:49:03;7.60;;;4.63;;
17570;SDS011;8903;52.220;20.978;2023-07-28T06:51:30;4.50;;;4.10;;
17570;SDS011;8903;52.220;20.978;2023-07-28T06:53:57;11.70;;;4.43;;
17570;SDS011;8903;52.220;20.978;2023-07-28T06:56:24;6.50;;;4.83;;
17570;SDS011;8903;52.220;20.978;2023-07-28T06:58:51;6.03;;;5.53;;
17570;SDS011;8903;52.220;20.978;2023-07-28T07:01:18;6.30;;;4.20;;
17570;SDS011;8903;52.220;20.978;2023-07-28T07:03:48;8.00;;;4.67;;
17570;SDS011;8903;52.220;20.978;2023-07-28T07:06:15;5.33;;;4.87;;
17570;SDS011;8903;52.220;20.978;2023-07-28T07:08:42;6.17;;;4.70;;
17570;SDS011;8903;52.220;20.978;2023-07-28T07:11:09;6.60;;;5.43;;
17570;SDS011;8903;52.220;20.978;2023-07-28T07:13:36;9.03;;;5.40;;
17570;SDS011;8903;52.220;20.978;2023-07-28T07:16:03;9.00;;;5.23;;
17570;SDS011;8903;52.220;20.978;2023-07-28T07:18:31;8.40;;;6.50;;
17570;SDS011;8903;52.220;20.978;2023-07-28T07:21:02;11.00;;;6.33;;
17570;SDS011;8903;52.220;20.978;2023-07-28T07:23:31;7.63;;;6.43;;
17570;SDS011;8903;52.220;20.978;2023-07-28T07:25:58;7.53;;;6.60;;
17570;SDS011;8903;52.220;20.978;2023-07-28T07:28:25;7.83;;;7.13;;
17570;SDS011;8903;52.220;20.978;2023-07-28T07:30:53;9.40;;;7.43;;
17570;SDS011;8903;52.220;20.978;2023-07-28T07:33:20;11.50;;;9.00;;
17570;SDS011;8903;52.220;20.978;2023-07-28T07:35:47;10.53;;;8.70;;
17570;SDS011;8903;52.220;20.978;2023-07-28T07:38:16;13.83;;;8.90;;
17570;SDS011;8903;52.220;20.978;2023-07-28T07:40:42;9.80;;;8.03;;
17570;SDS011;8903;52.220;20.978;2023-07-28T07:43:12;9.53;;;7.90;;
17570;SDS011;8903;52.220;20.978;2023-07-28T07:45:44;9.50;;;8.50;;
17570;SDS011;8903;52.220;20.978;2023-07-28T07:48:12;9.27;;;8.27;;
17570;SDS011;8903;52.220;20.978;2023-07-28T07:50:39;10.53;;;8.50;;
17570;SDS011;8903;52.220;20.978;2023-07-28T07:53:06;10.83;;;8.77;;
17570;SDS011;8903;52.220;20.978;2023-07-28T07:55:35;13.17;;;8.97;;
17570;SDS011;8903;52.220;20.978;2023-07-28T07:58:02;11.83;;;10.83;;
17570;SDS011;8903;52.220;20.978;2023-07-28T08:00:29;12.97;;;8.83;;
17570;SDS011;8903;52.220;20.978;2023-07-28T08:02:56;10.47;;;8.60;;
17570;SDS011;8903;52.220;20.978;2023-07-28T08:05:23;10.27;;;9.27;;
17570;SDS011;8903;52.220;20.978;2023-07-28T08:07:50;13.53;;;9.90;;
17570;SDS011;8903;52.220;20.978;2023-07-28T08:10:17;9.80;;;8.80;;
17570;SDS011;8903;52.220;20.978;2023-07-28T08:12:45;11.30;;;9.27;;
17570;SDS011;8903;52.220;20.978;2023-07-28T08:15:12;9.30;;;8.30;;
17570;SDS011;8903;52.220;20.978;2023-07-28T08:17:39;10.20;;;9.13;;
17570;SDS011;8903;52.220;20.978;2023-07-28T08:20:06;9.53;;;8.67;;
17570;SDS011;8903;52.220;20.978;2023-07-28T08:22:34;11.20;;;10.03;;
17570;SDS011;8903;52.220;20.978;2023-07-28T08:25:01;9.67;;;8.40;;
17570;SDS011;8903;52.220;20.978;2023-07-28T08:27:29;8.83;;;7.93;;
17570;SDS011;8903;52.220;20.978;2023-07-28T08:29:57;9.00;;;8.20;;
17570;SDS011;8903;52.220;20.978;2023-07-28T08:32:25;11.77;;;8.53;;
17570;SDS011;8903;52.220;20.978;2023-07-28T08:34:53;8.50;;;7.70;;
17570;SDS011;8903;52.220;20.978;2023-07-28T08:37:20;8.40;;;7.60;;
17570;SDS011;8903;52.220;20.978;2023-07-28T08:39:48;9.23;;;8.43;;
17570;SDS011;8903;52.220;20.978;2023-07-28T08:42:15;8.40;;;7.60;;
17570;SDS011;8903;52.220;20.978;2023-07-28T08:44:42;9.70;;;7.67;;
17570;SDS011;8903;52.220;20.978;2023-07-28T08:47:12;8.43;;;7.63;;
17570;SDS011;8903;52.220;20.978;2023-07-28T08:49:39;7.93;;;7.23;;
17570;SDS011;8903;52.220;20.978;2023-07-28T08:52:07;8.13;;;7.30;;
17570;SDS011;8903;52.220;20.978;2023-07-28T08:54:34;9.50;;;7.60;;
17570;SDS011;8903;52.220;20.978;2023-07-28T08:57:01;9.17;;;7.53;;
17570;SDS011;8903;52.220;20.978;2023-07-28T08:59:29;8.83;;;7.00;;
17570;SDS011;8903;52.220;20.978;2023-07-28T09:01:56;11.03;;;6.93;;
17570;SDS011;8903;52.220;20.978;2023-07-28T09:04:26;7.97;;;6.67;;
17570;SDS011;8903;52.220;20.978;2023-07-28T09:06:53;7.03;;;6.20;;
17570;SDS011;8903;52.220;20.978;2023-07-28T09:09:20;6.83;;;6.23;;
17570;SDS011;8903;52.220;20.978;2023-07-28T09:11:49;7.90;;;6.50;;
17570;SDS011;8903;52.220;20.978;2023-07-28T09:14:18;9.10;;;6.47;;
17570;SDS011;8903;52.220;20.978;2023-07-28T09:16:45;7.77;;;6.97;;
17570;SDS011;8903;52.220;20.978;2023-07-28T09:19:13;7.73;;;6.70;;
17570;SDS011;8903;52.220;20.978;2023-07-28T09:21:42;12.53;;;7.10;;
17570;SDS011;8903;52.220;20.978;2023-07-28T09:24:11;7.83;;;7.03;;
17570;SDS011;8903;52.220;20.978;2023-07-28T09:26:39;7.70;;;7.00;;
17570;SDS011;8903;52.220;20.978;2023-07-28T09:29:14;8.90;;;7.50;;
17570;SDS011;8903;52.220;20.978;2023-07-28T09:31:41;6.97;;;6.37;;
17570;SDS011;8903;52.220;20.978;2023-07-28T09:34:08;7.47;;;6.63;;
17570;SDS011;8903;52.220;20.978;2023-07-28T09:36:37;9.80;;;7.50;;
17570;SDS011;8903;52.220;20.978;2023-07-28T09:39:06;8.87;;;7.47;;
17570;SDS011;8903;52.220;20.978;2023-07-28T09:41:34;8.17;;;6.40;;
17570;SDS011;8903;52.220;20.978;2023-07-28T09:44:02;6.90;;;6.30;;
17570;SDS011;8903;52.220;20.978;2023-07-28T09:46:30;7.73;;;6.93;;
17570;SDS011;8903;52.220;20.978;2023-07-28T09:49:00;6.97;;;6.37;;
17570;SDS011;8903;52.220;20.978;2023-07-28T09:51:32;11.27;;;7.70;;
17570;SDS011;8903;52.220;20.978;2023-07-28T09:54:04;8.17;;;7.20;;
17570;SDS011;8903;52.220;20.978;2023-07-28T09:56:38;7.90;;;6.60;;
17570;SDS011;8903;52.220;20.978;2023-07-28T09:59:07;7.53;;;6.83;;
17570;SDS011;8903;52.220;20.978;2023-07-28T10:01:37;7.60;;;6.80;;
17570;SDS011;8903;52.220;20.978;2023-07-28T10:04:05;7.13;;;6.43;;
17570;SDS011;8903;52.220;20.978;2023-07-28T10:06:32;8.97;;;7.40;;
17570;SDS011;8903;52.220;20.978;2023-07-28T10:09:00;6.97;;;6.27;;
17570;SDS011;8903;52.220;20.978;2023-07-28T10:11:28;12.23;;;7.77;;
17570;SDS011;8903;52.220;20.978;2023-07-28T10:13:56;7.97;;;7.17;;
17570;SDS011;8903;52.220;20.978;2023-07-28T10:16:29;7.03;;;5.93;;
17570;SDS011;8903;52.220;20.978;2023-07-28T10:18:58;8.87;;;7.60;;
17570;SDS011;8903;52.220;20.978;2023-07-28T10:21:27;10.83;;;7.77;;
17570;SDS011;8903;52.220;20.978;2023-07-28T10:23:56;8.97;;;8.17;;
17570;SDS011;8903;52.220;20.978;2023-07-28T10:26:33;12.20;;;7.70;;
17570;SDS011;8903;52.220;20.978;2023-07-28T10:29:08;8.17;;;7.43;;
17570;SDS011;8903;52.220;20.978;2023-07-28T10:31:36;8.20;;;7.30;;
17570;SDS011;8903;52.220;20.978;2023-07-28T10:34:03;8.23;;;7.40;;
17570;SDS011;8903;52.220;20.978;2023-07-28T10:36:33;7.50;;;6.80;;
17570;SDS011;8903;52.220;20.978;2023-07-28T10:39:02;10.07;;;8.57;;
17570;SDS011;8903;52.220;20.978;2023-07-28T10:41:40;7.80;;;6.60;;
17570;SDS011;8903;52.220;20.978;2023-07-28T10:44:28;11.03;;;7.33;;
17570;SDS011;8903;52.220;20.978;2023-07-28T10:46:55;8.13;;;7.33;;
17570;SDS011;8903;52.220;20.978;2023-07-28T10:49:23;7.03;;;6.33;;
17570;SDS011;8903;52.220;20.978;2023-07-28T10:51:50;7.23;;;6.57;;
17570;SDS011;8903;52.220;20.978;2023-07-28T10:54:17;11.23;;;8.47;;
17570;SDS011;8903;52.220;20.978;2023-07-28T10:56:46;8.03;;;6.50;;
17570;SDS011;8903;52.220;20.978;2023-07-28T10:59:14;7.00;;;6.40;;
17570;SDS011;8903;52.220;20.978;2023-07-28T11:01:42;6.90;;;6.27;;
17570;SDS011;8903;52.220;20.978;2023-07-28T11:04:10;7.07;;;6.47;;
17570;SDS011;8903;52.220;20.978;2023-07-28T11:06:39;10.17;;;6.73;;
17570;SDS011;8903;52.220;20.978;2023-07-28T11:09:11;6.87;;;6.27;;
17570;SDS011;8903;52.220;20.978;2023-07-28T11:11:40;8.17;;;7.30;;
17570;SDS011;8903;52.220;20.978;2023-07-28T11:14:09;7.73;;;5.87;;
17570;SDS011;8903;52.220;20.978;2023-07-28T11:16:38;7.40;;;6.70;;
17570;SDS011;8903;52.220;20.978;2023-07-28T11:19:08;8.60;;;6.20;;
17570;SDS011;8903;52.220;20.978;2023-07-28T11:21:37;7.93;;;7.13;;
17570;SDS011;8903;52.220;20.978;2023-07-28T11:24:06;6.60;;;5.97;;
17570;SDS011;8903;52.220;20.978;2023-07-28T11:26:34;6.90;;;6.30;;
17570;SDS011;8903;52.220;20.978;2023-07-28T11:29:02;8.20;;;6.10;;
17570;SDS011;8903;52.220;20.978;2023-07-28T11:31:33;5.57;;;5.07;;
17570;SDS011;8903;52.220;20.978;2023-07-28T11:34:00;8.20;;;6.40;;
17570;SDS011;8903;52.220;20.978;2023-07-28T11:36:28;6.23;;;5.57;;
17570;SDS011;8903;52.220;20.978;2023-07-28T11:38:57;5.77;;;5.17;;
17570;SDS011;8903;52.220;20.978;2023-07-28T11:41:26;6.33;;;4.10;;
17570;SDS011;8903;52.220;20.978;2023-07-28T11:43:54;3.00;;;2.70;;
17570;SDS011;8903;52.220;20.978;2023-07-28T11:46:36;4.10;;;2.80;;
17570;SDS011;8903;52.220;20.978;2023-07-28T11:49:06;2.70;;;2.50;;
17570;SDS011;8903;52.220;20.978;2023-07-28T11:51:36;3.60;;;2.27;;
17570;SDS011;8903;52.220;20.978;2023-07-28T11:54:10;3.27;;;1.80;;
17570;SDS011;8903;52.220;20.978;2023-07-28T11:56:39;2.47;;;2.00;;
17570;SDS011;8903;52.220;20.978;2023-07-28T11:59:06;1.90;;;1.37;;
17570;SDS011;8903;52.220;20.978;2023-07-28T12:01:33;1.60;;;1.50;;
17570;SDS011;8903;52.220;20.978;2023-07-28T12:04:20;2.10;;;1.90;;
17570;SDS011;8903;52.220;20.978;2023-07-28T12:07:00;3.10;;;1.97;;
17570;SDS011;8903;52.220;20.978;2023-07-28T12:09:29;1.20;;;1.10;;
17570;SDS011;8903;52.220;20.978;2023-07-28T12:11:57;1.50;;;1.40;;
17570;SDS011;8903;52.220;20.978;2023-07-28T12:14:32;4.20;;;1.97;;
17570;SDS011;8903;52.220;20.978;2023-07-28T12:17:02;1.90;;;1.57;;
17570;SDS011;8903;52.220;20.978;2023-07-28T12:19:29;3.07;;;2.17;;
17570;SDS011;8903;52.220;20.978;2023-07-28T12:22:00;1.87;;;1.10;;
17570;SDS011;8903;52.220;20.978;2023-07-28T12:24:37;2.17;;;1.67;;
17570;SDS011;8903;52.220;20.978;2023-07-28T12:27:04;2.30;;;1.53;;
17570;SDS011;8903;52.220;20.978;2023-07-28T12:29:36;4.10;;;2.63;;
17570;SDS011;8903;52.220;20.978;2023-07-28T12:32:06;3.53;;;1.60;;
17570;SDS011;8903;52.220;20.978;2023-07-28T12:34:33;2.20;;;1.60;;
17570;SDS011;8903;52.220;20.978;2023-07-28T12:37:00;3.30;;;1.50;;
17570;SDS011;8903;52.220;20.978;2023-07-28T12:39:27;1.67;;;1.13;;
17570;SDS011;8903;52.220;20.978;2023-07-28T12:41:54;2.30;;;1.77;;
17570;SDS011;8903;52.220;20.978;2023-07-28T12:44:22;2.53;;;1.77;;
17570;SDS011;8903;52.220;20.978;2023-07-28T12:46:51;2.30;;;1.30;;
17570;SDS011;8903;52.220;20.978;2023-07-28T12:49:21;1.40;;;1.30;;
17570;SDS011;8903;52.220;20.978;2023-07-28T12:51:48;1.33;;;1.23;;
17570;SDS011;8903;52.220;20.978;2023-07-28T12:54:15;3.97;;;1.17;;
17570;SDS011;8903;52.220;20.978;2023-07-28T12:56:42;1.47;;;1.27;;
17570;SDS011;8903;52.220;20.978;2023-07-28T12:59:09;2.93;;;2.73;;
17570;SDS011;8903;52.220;20.978;2023-07-28T13:01:37;1.33;;;1.20;;
17570;SDS011;8903;52.220;20.978;2023-07-28T13:04:05;2.20;;;1.53;;
17570;SDS011;8903;52.220;20.978;2023-07-28T13:06:33;2.70;;;1.70;;
17570;SDS011;8903;52.220;20.978;2023-07-28T13:09:01;1.20;;;1.10;;
17570;SDS011;8903;52.220;20.978;2023-07-28T13:11:30;1.67;;;1.57;;
17570;SDS011;8903;52.220;20.978;2023-07-28T13:13:57;1.57;;;1.47;;
17570;SDS011;8903;52.220;20.978;2023-07-28T13:16:25;8.73;;;3.70;;
17570;SDS011;8903;52.220;20.978;2023-07-28T13:18:52;1.13;;;1.03;;
17570;SDS011;8903;52.220;20.978;2023-07-28T13:21:20;1.20;;;1.03;;
17570;SDS011;8903;52.220;20.978;2023-07-28T13:23:48;1.40;;;1.30;;
17570;SDS011;8903;52.220;20.978;2023-07-28T13:26:15;1.17;;;1.07;;
17570;SDS011;8903;52.220;20.978;2023-07-28T13:28:42;1.30;;;1.20;;
17570;SDS011;8903;52.220;20.978;2023-07-28T13:31:12;1.87;;;1.53;;
17570;SDS011;8903;52.220;20.978;2023-07-28T13:33:39;4.63;;;1.70;;
17570;SDS011;8903;52.220;20.978;2023-07-28T13:36:06;1.40;;;1.30;;
17570;SDS011;8903;52.220;20.978;2023-07-28T13:38:33;2.57;;;1.23;;
17570;SDS011;8903;52.220;20.978;2023-07-28T13:41:04;4.50;;;1.57;;
17570;SDS011;8903;52.220;20.978;2023-07-28T13:43:32;1.90;;;1.63;;
17570;SDS011;8903;52.220;20.978;2023-07-28T13:46:01;3.30;;;1.10;;
17570;SDS011;8903;52.220;20.978;2023-07-28T13:48:30;1.90;;;1.40;;
17570;SDS011;8903;52.220;20.978;2023-07-28T13:50:57;2.20;;;1.40;;
17570;SDS011;8903;52.220;20.978;2023-07-28T13:53:24;2.17;;;1.20;;
17570;SDS011;8903;52.220;20.978;2023-07-28T13:55:51;1.47;;;1.30;;
17570;SDS011;8903;52.220;20.978;2023-07-28T13:58:20;1.30;;;0.93;;
17570;SDS011;8903;52.220;20.978;2023-07-28T14:00:47;2.00;;;1.67;;
17570;SDS011;8903;52.220;20.978;2023-07-28T14:03:14;1.57;;;1.40;;
17570;SDS011;8903;52.220;20.978;2023-07-28T14:05:41;2.13;;;1.27;;
17570;SDS011;8903;52.220;20.978;2023-07-28T14:08:08;1.50;;;1.40;;
17570;SDS011;8903;52.220;20.978;2023-07-28T14:10:35;1.70;;;1.50;;
17570;SDS011;8903;52.220;20.978;2023-07-28T14:13:03;2.30;;;1.93;;
17570;SDS011;8903;52.220;20.978;2023-07-28T14:15:32;2.53;;;2.17;;
17570;SDS011;8903;52.220;20.978;2023-07-28T14:17:59;1.67;;;1.57;;
17570;SDS011;8903;52.220;20.978;2023-07-28T14:20:26;1.90;;;1.80;;
17570;SDS011;8903;52.220;20.978;2023-07-28T14:22:53;2.27;;;2.07;;
17570;SDS011;8903;52.220;20.978;2023-07-28T14:25:20;2.90;;;2.00;;
17570;SDS011;8903;52.220;20.978;2023-07-28T14:27:47;2.30;;;2.10;;
17570;SDS011;8903;52.220;20.978;2023-07-28T14:30:14;2.23;;;1.70;;
17570;SDS011;8903;52.220;20.978;2023-07-28T14:32:43;1.70;;;1.60;;
17570;SDS011;8903;52.220;20.978;2023-07-28T14:35:10;7.07;;;4.30;;
17570;SDS011;8903;52.220;20.978;2023-07-28T14:37:37;2.63;;;1.87;;
17570;SDS011;8903;52.220;20.978;2023-07-28T14:40:04;2.20;;;1.93;;
17570;SDS011;8903;52.220;20.978;2023-07-28T14:42:32;3.53;;;1.70;;
17570;SDS011;8903;52.220;20.978;2023-07-28T14:44:59;1.70;;;1.60;;
17570;SDS011;8903;52.220;20.978;2023-07-28T14:47:26;1.50;;;1.40;;
17570;SDS011;8903;52.220;20.978;2023-07-28T14:49:55;2.63;;;1.93;;
17570;SDS011;8903;52.220;20.978;2023-07-28T14:52:22;2.80;;;1.87;;
17570;SDS011;8903;52.220;20.978;2023-07-28T14:54:49;2.00;;;1.90;;